sensor_id;sensor_type;location;lat;lon;timestamp;pressure;altitude;pressure_sealevel;temperature;humidity
21273;BME280;36726;52.328;10.552;2023-02-16T00:00:21;101361.19;;;4.29;92.14
21273;BME280;36726;52.328;10.552;2023-02-16T00:02:48;101355.13;;;4.30;91.84
21273;BME280;36726;52.328;10.552;2023-02-16T00:05:23;101358.50;;;4.28;92.25
21273;BME280;36726;52.328;10.552;2023-02-16T00:07:51;101359.38;;;4.28;92.08
21273;BME280;36726;52.328;10.552;2023-02-16T00:10:19;101362.84;;;4.27;91.96
21273;BME280;36726;52.328;10.552;2023-02-16T00:12:46;101368.97;;;4.28;91.48
21273;BME280;36726;52.328;10.552;2023-02-16T00:15:32;101360.16;;;4.26;91.50
21273;BME280;36726;52.328;10.552;2023-02-16T00:17:59;101362.75;;;4.26;92.15
21273;BME280;36726;52.328;10.552;2023-02-16T00:20:28;101362.69;;;4.24;91.72
21273;BME280;36726;52.328;10.552;2023-02-16T00:22:58;101357.34;;;4.22;92.09
21273;BME280;36726;52.328;10.552;2023-02-16T00:25:24;101367.81;;;4.22;91.66
21273;BME280;36726;52.328;10.552;2023-02-16T00:27:51;101373.91;;;4.21;91.79
21273;BME280;36726;52.328;10.552;2023-02-16T00:30:20;101373.00;;;4.21;91.86
21273;BME280;36726;52.328;10.552;2023-02-16T00:32:48;101371.13;;;4.18;92.37
21273;BME280;36726;52.328;10.552;2023-02-16T00:35:20;101364.00;;;4.16;92.04
21273;BME280;36726;52.328;10.552;2023-02-16T00:37:47;101365.66;;;4.14;92.40
21273;BME280;36726;52.328;10.552;2023-02-16T00:40:16;101365.50;;;4.11;92.53
21273;BME280;36726;52.328;10.552;2023-02-16T00:42:45;101364.44;;;4.07;92.42
21273;BME280;36726;52.328;10.552;2023-02-16T00:45:15;101361.75;;;4.06;93.03
21273;BME280;36726;52.328;10.552;2023-02-16T00:47:43;101361.56;;;4.03;92.58
21273;BME280;36726;52.328;10.552;2023-02-16T00:50:23;101365.84;;;4.01;92.72
21273;BME280;36726;52.328;10.552;2023-02-16T00:52:49;101371.00;;;3.99;92.45
21273;BME280;36726;52.328;10.552;2023-02-16T00:55:19;101371.75;;;3.97;93.09
21273;BME280;36726;52.328;10.552;2023-02-16T00:57:47;101369.03;;;3.95;92.76
21273;BME280;36726;52.328;10.552;2023-02-16T01:00:24;101362.75;;;3.92;92.72
21273;BME280;36726;52.328;10.552;2023-02-16T01:02:55;101369.66;;;3.90;93.42
21273;BME280;36726;52.328;10.552;2023-02-16T01:05:23;101363.50;;;3.89;92.92
21273;BME280;36726;52.328;10.552;2023-02-16T01:07:49;101356.38;;;3.87;92.83
21273;BME280;36726;52.328;10.552;2023-02-16T01:10:36;101362.44;;;3.86;93.39
21273;BME280;36726;52.328;10.552;2023-02-16T01:13:22;101364.09;;;3.84;93.66
21273;BME280;36726;52.328;10.552;2023-02-16T01:15:49;101355.25;;;3.82;93.41
21273;BME280;36726;52.328;10.552;2023-02-16T01:18:19;101350.94;;;3.82;93.71
21273;BME280;36726;52.328;10.552;2023-02-16T01:20:49;101356.88;;;3.80;93.06
21273;BME280;36726;52.328;10.552;2023-02-16T01:23:16;101347.25;;;3.79;93.45
21273;BME280;36726;52.328;10.552;2023-02-16T01:25:43;101341.91;;;3.77;93.49
21273;BME280;36726;52.328;10.552;2023-02-16T01:28:22;101342.81;;;3.78;93.64
21273;BME280;36726;52.328;10.552;2023-02-16T01:30:49;101334.81;;;3.75;93.70
21273;BME280;36726;52.328;10.552;2023-02-16T01:33:18;101337.44;;;3.75;93.79
21273;BME280;36726;52.328;10.552;2023-02-16T01:35:45;101333.00;;;3.74;93.84
21273;BME280;36726;52.328;10.552;2023-02-16T01:38:23;101317.31;;;3.74;93.89
21273;BME280;36726;52.328;10.552;2023-02-16T01:41:05;101312.06;;;3.74;93.83
21273;BME280;36726;52.328;10.552;2023-02-16T01:43:45;101318.16;;;3.73;94.10
21273;BME280;36726;52.328;10.552;2023-02-16T01:46:27;101329.53;;;3.73;94.21
21273;BME280;36726;52.328;10.552;2023-02-16T01:48:57;101324.28;;;3.73;93.95
21273;BME280;36726;52.328;10.552;2023-02-16T01:51:33;101319.94;;;3.74;93.85
21273;BME280;36726;52.328;10.552;2023-02-16T01:56:52;101317.25;;;3.72;94.26
21273;BME280;36726;52.328;10.552;2023-02-16T01:59:36;101311.28;;;3.75;94.28
21273;BME280;36726;52.328;10.552;2023-02-16T02:02:38;101295.50;;;3.73;94.55
21273;BME280;36726;52.328;10.552;2023-02-16T02:05:18;101304.22;;;3.74;94.35
21273;BME280;36726;52.328;10.552;2023-02-16T02:10:49;101304.09;;;3.71;94.90
21273;BME280;36726;52.328;10.552;2023-02-16T02:13:45;101303.94;;;3.68;94.63
21273;BME280;36726;52.328;10.552;2023-02-16T02:16:18;101307.19;;;3.64;95.17
21273;BME280;36726;52.328;10.552;2023-02-16T02:18:46;101303.59;;;3.62;94.87
21273;BME280;36726;52.328;10.552;2023-02-16T02:21:34;101302.63;;;3.60;95.09
21273;BME280;36726;52.328;10.552;2023-02-16T02:27:37;101310.41;;;3.58;95.91
21273;BME280;36726;52.328;10.552;2023-02-16T02:30:40;101311.13;;;3.56;96.12
21273;BME280;36726;52.328;10.552;2023-02-16T02:41:13;101297.91;;;3.53;96.15
21273;BME280;36726;52.328;10.552;2023-02-16T02:43:55;101295.22;;;3.51;95.81
21273;BME280;36726;52.328;10.552;2023-02-16T02:46:32;101294.31;;;3.51;96.10
21273;BME280;36726;52.328;10.552;2023-02-16T02:49:02;101289.81;;;3.48;96.38
21273;BME280;36726;52.328;10.552;2023-02-16T02:51:29;101287.94;;;3.46;95.96
21273;BME280;36726;52.328;10.552;2023-02-16T02:54:10;101279.94;;;3.43;96.47
21273;BME280;36726;52.328;10.552;2023-02-16T03:03:27;101288.09;;;3.33;96.71
21273;BME280;36726;52.328;10.552;2023-02-16T03:06:28;101294.81;;;3.28;97.01
21273;BME280;36726;52.328;10.552;2023-02-16T03:09:02;101293.69;;;3.23;96.82
21273;BME280;36726;52.328;10.552;2023-02-16T03:11:30;101291.97;;;3.23;97.21
21273;BME280;36726;52.328;10.552;2023-02-16T03:14:18;101289.25;;;3.22;96.94
21273;BME280;36726;52.328;10.552;2023-02-16T03:16:49;101291.78;;;3.20;97.40
21273;BME280;36726;52.328;10.552;2023-02-16T03:19:35;101289.09;;;3.18;97.54
21273;BME280;36726;52.328;10.552;2023-02-16T03:22:22;101288.03;;;3.15;97.31
21273;BME280;36726;52.328;10.552;2023-02-16T03:25:07;101277.50;;;3.13;97.55
21273;BME280;36726;52.328;10.552;2023-02-16T03:27:54;101284.38;;;3.11;98.00
21273;BME280;36726;52.328;10.552;2023-02-16T03:30:41;101284.22;;;3.08;98.05
21273;BME280;36726;52.328;10.552;2023-02-16T03:33:08;101281.41;;;3.05;97.78
21273;BME280;36726;52.328;10.552;2023-02-16T03:35:35;101277.81;;;3.03;98.08
21273;BME280;36726;52.328;10.552;2023-02-16T03:38:02;101281.91;;;2.98;98.05
21273;BME280;36726;52.328;10.552;2023-02-16T03:40:31;101284.34;;;2.95;98.34
21273;BME280;36726;52.328;10.552;2023-02-16T03:43:02;101285.06;;;2.93;98.39
21273;BME280;36726;52.328;10.552;2023-02-16T03:45:33;101282.38;;;2.91;98.54
21273;BME280;36726;52.328;10.552;2023-02-16T03:48:00;101288.34;;;2.89;98.76
21273;BME280;36726;52.328;10.552;2023-02-16T03:50:27;101290.88;;;2.87;98.72
21273;BME280;36726;52.328;10.552;2023-02-16T03:52:55;101281.16;;;2.85;99.15
21273;BME280;36726;52.328;10.552;2023-02-16T03:55:38;101288.94;;;2.83;99.02
21273;BME280;36726;52.328;10.552;2023-02-16T03:58:06;101288.03;;;2.83;99.06
21273;BME280;36726;52.328;10.552;2023-02-16T04:00:34;101291.44;;;2.82;99.37
21273;BME280;36726;52.328;10.552;2023-02-16T04:03:03;101282.72;;;2.81;99.43
21273;BME280;36726;52.328;10.552;2023-02-16T04:05:30;101274.69;;;2.78;99.92
21273;BME280;36726;52.328;10.552;2023-02-16T04:07:57;101284.25;;;2.78;99.84
21273;BME280;36726;52.328;10.552;2023-02-16T04:10:25;101280.59;;;2.74;99.76
21273;BME280;36726;52.328;10.552;2023-02-16T04:12:53;101277.78;;;2.71;100.00
21273;BME280;36726;52.328;10.552;2023-02-16T04:15:21;101267.97;;;2.67;100.00
21273;BME280;36726;52.328;10.552;2023-02-16T04:17:48;101279.09;;;2.63;100.00
21273;BME280;36726;52.328;10.552;2023-02-16T04:20:18;101277.19;;;2.61;100.00
21273;BME280;36726;52.328;10.552;2023-02-16T04:22:46;101277.91;;;2.58;100.00
21273;BME280;36726;52.328;10.552;2023-02-16T04:25:14;101283.13;;;2.58;100.00
21273;BME280;36726;52.328;10.552;2023-02-16T04:27:41;101282.19;;;2.56;100.00
21273;BME280;36726;52.328;10.552;2023-02-16T04:30:14;101280.38;;;2.55;100.00
21273;BME280;36726;52.328;10.552;2023-02-16T04:32:43;101273.34;;;2.54;100.00
21273;BME280;36726;52.328;10.552;2023-02-16T04:35:10;101273.34;;;2.54;100.00
21273;BME280;36726;52.328;10.552;2023-02-16T04:37:36;101264.53;;;2.52;100.00
21273;BME280;36726;52.328;10.552;2023-02-16T04:40:07;101272.38;;;2.52;100.00
21273;BME280;36726;52.328;10.552;2023-02-16T04:42:34;101278.50;;;2.53;100.00
21273;BME280;36726;52.328;10.552;2023-02-16T04:45:00;101273.34;;;2.54;100.00
21273;BME280;36726;52.328;10.552;2023-02-16T04:47:27;101279.47;;;2.55;100.00
21273;BME280;36726;52.328;10.552;2023-02-16T04:49:54;101282.00;;;2.53;100.00
21273;BME280;36726;52.328;10.552;2023-02-16T04:52:20;101270.56;;;2.51;100.00
21273;BME280;36726;52.328;10.552;2023-02-16T04:54:47;101269.56;;;2.49;100.00
21273;BME280;36726;52.328;10.552;2023-02-16T04:57:14;101268.69;;;2.49;100.00
21273;BME280;36726;52.328;10.552;2023-02-16T04:59:42;101264.19;;;2.46;100.00
21273;BME280;36726;52.328;10.552;2023-02-16T05:02:08;101274.63;;;2.46;100.00
21273;BME280;36726;52.328;10.552;2023-02-16T05:04:35;101268.41;;;2.44;100.00
21273;BME280;36726;52.328;10.552;2023-02-16T05:07:02;101265.88;;;2.46;100.00
21273;BME280;36726;52.328;10.552;2023-02-16T05:09:28;101262.41;;;2.45;100.00
21273;BME280;36726;52.328;10.552;2023-02-16T05:11:55;101253.59;;;2.43;100.00
21273;BME280;36726;52.328;10.552;2023-02-16T05:14:40;101256.34;;;2.46;100.00
21273;BME280;36726;52.328;10.552;2023-02-16T05:17:20;101264.19;;;2.46;100.00
21273;BME280;36726;52.328;10.552;2023-02-16T05:19:50;101256.44;;;2.48;100.00
21273;BME280;36726;52.328;10.552;2023-02-16T05:22:17;101259.97;;;2.48;100.00
21273;BME280;36726;52.328;10.552;2023-02-16T05:24:44;101256.44;;;2.48;100.00
21273;BME280;36726;52.328;10.552;2023-02-16T05:27:15;101259.88;;;2.47;100.00
21273;BME280;36726;52.328;10.552;2023-02-16T05:29:43;101259.13;;;2.49;100.00
21273;BME280;36726;52.328;10.552;2023-02-16T05:32:12;101262.72;;;2.51;100.00
21273;BME280;36726;52.328;10.552;2023-02-16T05:34:39;101253.81;;;2.48;100.00
21273;BME280;36726;52.328;10.552;2023-02-16T05:37:08;101257.34;;;2.48;100.00
21273;BME280;36726;52.328;10.552;2023-02-16T05:39:34;101252.13;;;2.48;100.00
21273;BME280;36726;52.328;10.552;2023-02-16T05:42:02;101260.88;;;2.49;100.00
21273;BME280;36726;52.328;10.552;2023-02-16T05:44:29;101264.25;;;2.48;100.00
21273;BME280;36726;52.328;10.552;2023-02-16T05:46:55;101259.03;;;2.48;100.00
21273;BME280;36726;52.328;10.552;2023-02-16T05:49:22;101257.34;;;2.48;100.00
21273;BME280;36726;52.328;10.552;2023-02-16T05:51:48;101259.03;;;2.48;100.00
21273;BME280;36726;52.328;10.552;2023-02-16T05:54:15;101256.44;;;2.48;100.00
21273;BME280;36726;52.328;10.552;2023-02-16T05:56:49;101257.25;;;2.47;100.00
21273;BME280;36726;52.328;10.552;2023-02-16T05:59:16;101258.06;;;2.46;100.00
21273;BME280;36726;52.328;10.552;2023-02-16T06:01:43;101269.41;;;2.46;100.00
21273;BME280;36726;52.328;10.552;2023-02-16T06:04:19;101265.88;;;2.46;100.00
21273;BME280;36726;52.328;10.552;2023-02-16T06:06:46;101268.63;;;2.47;100.00
21273;BME280;36726;52.328;10.552;2023-02-16T06:09:13;101273.91;;;2.49;100.00
21273;BME280;36726;52.328;10.552;2023-02-16T06:11:43;101273.91;;;2.49;100.00
21273;BME280;36726;52.328;10.552;2023-02-16T06:14:15;101270.41;;;2.48;100.00
21273;BME280;36726;52.328;10.552;2023-02-16T06:16:44;101278.22;;;2.48;100.00
21273;BME280;36726;52.328;10.552;2023-02-16T06:19:14;101277.41;;;2.49;100.00
21273;BME280;36726;52.328;10.552;2023-02-16T06:21:41;101279.22;;;2.50;100.00
21273;BME280;36726;52.328;10.552;2023-02-16T06:24:09;101274.78;;;2.49;100.00
21273;BME280;36726;52.328;10.552;2023-02-16T06:26:36;101274.00;;;2.50;100.00
21273;BME280;36726;52.328;10.552;2023-02-16T06:29:05;101278.38;;;2.51;100.00
21273;BME280;36726;52.328;10.552;2023-02-16T06:31:32;101265.44;;;2.53;100.00
21273;BME280;36726;52.328;10.552;2023-02-16T06:34:02;101270.75;;;2.54;100.00
21273;BME280;36726;52.328;10.552;2023-02-16T06:36:29;101270.00;;;2.57;100.00
21273;BME280;36726;52.328;10.552;2023-02-16T06:38:56;101270.28;;;2.61;100.00
21273;BME280;36726;52.328;10.552;2023-02-16T06:41:23;101267.91;;;2.66;100.00
21273;BME280;36726;52.328;10.552;2023-02-16T06:44:07;101263.78;;;3.01;100.00
21273;BME280;36726;52.328;10.552;2023-02-16T06:46:35;101277.63;;;3.49;100.00
21273;BME280;36726;52.328;10.552;2023-02-16T06:49:01;101269.69;;;3.97;100.00
21273;BME280;36726;52.328;10.552;2023-02-16T06:51:28;101266.31;;;4.35;100.00
21273;BME280;36726;52.328;10.552;2023-02-16T06:53:55;101279.25;;;4.49;100.00
21273;BME280;36726;52.328;10.552;2023-02-16T06:56:22;101284.50;;;4.49;99.43
21273;BME280;36726;52.328;10.552;2023-02-16T06:58:49;101275.66;;;4.47;98.17
21273;BME280;36726;52.328;10.552;2023-02-16T07:01:17;101278.81;;;4.40;97.07
21273;BME280;36726;52.328;10.552;2023-02-16T07:03:49;101281.97;;;4.33;94.99
21273;BME280;36726;52.328;10.552;2023-02-16T07:06:16;101278.06;;;4.25;94.00
21273;BME280;36726;52.328;10.552;2023-02-16T07:08:43;101280.38;;;4.19;94.76
21273;BME280;36726;52.328;10.552;2023-02-16T07:11:10;101283.69;;;4.15;94.69
21273;BME280;36726;52.328;10.552;2023-02-16T07:13:36;101279.91;;;4.10;94.95
21273;BME280;36726;52.328;10.552;2023-02-16T07:16:05;101282.38;;;4.07;94.20
21273;BME280;36726;52.328;10.552;2023-02-16T07:18:33;101278.72;;;4.03;94.36
21273;BME280;36726;52.328;10.552;2023-02-16T07:21:00;101280.38;;;4.01;95.27
21273;BME280;36726;52.328;10.552;2023-02-16T07:23:27;101286.38;;;3.99;95.12
21273;BME280;36726;52.328;10.552;2023-02-16T07:25:53;101279.38;;;3.99;95.17
21273;BME280;36726;52.328;10.552;2023-02-16T07:28:20;101277.69;;;4.00;94.17
21273;BME280;36726;52.328;10.552;2023-02-16T07:30:46;101282.91;;;4.00;94.13
21273;BME280;36726;52.328;10.552;2023-02-16T07:33:14;101272.44;;;4.00;94.86
21273;BME280;36726;52.328;10.552;2023-02-16T07:35:41;101281.13;;;3.99;94.44
21273;BME280;36726;52.328;10.552;2023-02-16T07:38:07;101281.13;;;3.99;94.21
21273;BME280;36726;52.328;10.552;2023-02-16T07:40:35;101275.06;;;4.00;94.46
21273;BME280;36726;52.328;10.552;2023-02-16T07:43:03;101279.38;;;3.99;94.25
21273;BME280;36726;52.328;10.552;2023-02-16T07:45:30;101276.78;;;3.99;94.69
21273;BME280;36726;52.328;10.552;2023-02-16T07:48:01;101277.69;;;4.00;93.97
21273;BME280;36726;52.328;10.552;2023-02-16T07:50:27;101279.78;;;4.07;94.55
21273;BME280;36726;52.328;10.552;2023-02-16T07:52:54;101285.78;;;4.22;95.31
21273;BME280;36726;52.328;10.552;2023-02-16T07:55:21;101282.91;;;4.35;94.88
21273;BME280;36726;52.328;10.552;2023-02-16T07:57:48;101286.16;;;4.47;94.76
21273;BME280;36726;52.328;10.552;2023-02-16T08:00:21;101289.81;;;4.51;93.16
21273;BME280;36726;52.328;10.552;2023-02-16T08:02:48;101281.19;;;4.53;92.92
21273;BME280;36726;52.328;10.552;2023-02-16T08:05:15;101291.75;;;4.55;92.50
21273;BME280;36726;52.328;10.552;2023-02-16T08:07:42;101285.75;;;4.57;92.76
21273;BME280;36726;52.328;10.552;2023-02-16T08:10:12;101286.72;;;4.59;91.83
21273;BME280;36726;52.328;10.552;2023-02-16T08:12:38;101280.81;;;4.63;91.42
21273;BME280;36726;52.328;10.552;2023-02-16T08:15:06;101285.38;;;4.67;91.68
21273;BME280;36726;52.328;10.552;2023-02-16T08:17:33;101289.91;;;4.71;91.67
21273;BME280;36726;52.328;10.552;2023-02-16T08:20:01;101286.78;;;4.78;91.08
21273;BME280;36726;52.328;10.552;2023-02-16T08:22:27;101288.69;;;4.82;91.14
21273;BME280;36726;52.328;10.552;2023-02-16T08:24:54;101287.13;;;4.86;90.93
21273;BME280;36726;52.328;10.552;2023-02-16T08:27:21;101287.34;;;4.90;90.73
21273;BME280;36726;52.328;10.552;2023-02-16T08:29:47;101277.00;;;4.93;90.76
21273;BME280;36726;52.328;10.552;2023-02-16T08:32:14;101285.09;;;4.98;91.15
21273;BME280;36726;52.328;10.552;2023-02-16T08:34:41;101276.63;;;5.03;90.32
21273;BME280;36726;52.328;10.552;2023-02-16T08:37:11;101275.09;;;5.08;90.65
21273;BME280;36726;52.328;10.552;2023-02-16T08:39:38;101284.06;;;5.13;89.66
21273;BME280;36726;52.328;10.552;2023-02-16T08:42:05;101290.41;;;5.18;89.47
21273;BME280;36726;52.328;10.552;2023-02-16T08:44:32;101281.84;;;5.22;89.17
21273;BME280;36726;52.328;10.552;2023-02-16T08:46:59;101298.63;;;5.26;88.75
21273;BME280;36726;52.328;10.552;2023-02-16T08:49:26;101292.63;;;5.28;87.33
21273;BME280;36726;52.328;10.552;2023-02-16T08:51:56;101293.72;;;5.34;87.42
21273;BME280;36726;52.328;10.552;2023-02-16T08:54:27;101287.63;;;5.35;86.92
21273;BME280;36726;52.328;10.552;2023-02-16T08:56:56;101279.09;;;5.39;87.20
21273;BME280;36726;52.328;10.552;2023-02-16T08:59:25;101280.06;;;5.41;87.03
21273;BME280;36726;52.328;10.552;2023-02-16T09:01:55;101276.75;;;5.45;86.98
21273;BME280;36726;52.328;10.552;2023-02-16T09:04:22;101280.34;;;5.47;86.23
21273;BME280;36726;52.328;10.552;2023-02-16T09:06:50;101281.44;;;5.52;87.03
21273;BME280;36726;52.328;10.552;2023-02-16T09:09:18;101283.31;;;5.54;87.71
21273;BME280;36726;52.328;10.552;2023-02-16T09:11:45;101280.75;;;5.56;86.41
21273;BME280;36726;52.328;10.552;2023-02-16T09:14:12;101286.13;;;5.59;86.36
21273;BME280;36726;52.328;10.552;2023-02-16T09:16:41;101277.50;;;5.61;86.64
21273;BME280;36726;52.328;10.552;2023-02-16T09:19:12;101284.59;;;5.64;85.63
21273;BME280;36726;52.328;10.552;2023-02-16T09:21:41;101290.91;;;5.69;86.11
21273;BME280;36726;52.328;10.552;2023-02-16T09:24:08;101275.31;;;5.72;85.70
21273;BME280;36726;52.328;10.552;2023-02-16T09:26:36;101276.41;;;5.77;85.00
21273;BME280;36726;52.328;10.552;2023-02-16T09:29:04;101268.84;;;5.83;85.63
21273;BME280;36726;52.328;10.552;2023-02-16T09:31:33;101283.13;;;5.89;84.83
21273;BME280;36726;52.328;10.552;2023-02-16T09:36:28;101281.09;;;6.03;84.20
21273;BME280;36726;52.328;10.552;2023-02-16T09:38:55;101286.59;;;6.09;83.16
21273;BME280;36726;52.328;10.552;2023-02-16T09:44:25;101280.91;;;6.41;83.69
21273;BME280;36726;52.328;10.552;2023-02-16T09:46:56;101268.50;;;6.59;83.34
21273;BME280;36726;52.328;10.552;2023-02-16T09:49:31;101269.28;;;6.79;83.98
21273;BME280;36726;52.328;10.552;2023-02-16T09:55:36;101262.81;;;7.15;81.08
21273;BME280;36726;52.328;10.552;2023-02-16T09:58:39;101264.63;;;7.40;81.49
21273;BME280;36726;52.328;10.552;2023-02-16T10:01:18;101269.75;;;7.60;81.04
21273;BME280;36726;52.328;10.552;2023-02-16T10:03:58;101265.72;;;7.70;77.59
21273;BME280;36726;52.328;10.552;2023-02-16T10:09:18;101259.44;;;7.91;76.21
21273;BME280;36726;52.328;10.552;2023-02-16T10:11:51;101261.50;;;8.00;75.72
21273;BME280;36726;52.328;10.552;2023-02-16T10:14:39;101263.69;;;8.13;77.05
21273;BME280;36726;52.328;10.552;2023-02-16T10:17:39;101258.84;;;8.25;77.03
21273;BME280;36726;52.328;10.552;2023-02-16T10:20:15;101263.75;;;8.39;76.27
21273;BME280;36726;52.328;10.552;2023-02-16T10:23:05;101264.16;;;8.52;75.11
21273;BME280;36726;52.328;10.552;2023-02-16T10:25:40;101277.88;;;8.68;73.84
21273;BME280;36726;52.328;10.552;2023-02-16T10:28:41;101278.50;;;8.88;74.16
21273;BME280;36726;52.328;10.552;2023-02-16T10:31:26;101279.84;;;9.03;73.37
21273;BME280;36726;52.328;10.552;2023-02-16T10:34:04;101278.63;;;9.20;73.65
21273;BME280;36726;52.328;10.552;2023-02-16T10:39:36;101277.34;;;9.37;69.06
21273;BME280;36726;52.328;10.552;2023-02-16T10:45:01;101269.97;;;9.57;69.57
21273;BME280;36726;52.328;10.552;2023-02-16T10:47:36;101282.47;;;9.63;68.29
21273;BME280;36726;52.328;10.552;2023-02-16T10:50:05;101275.69;;;9.72;68.11
21273;BME280;36726;52.328;10.552;2023-02-16T10:52:36;101281.25;;;9.83;69.66
21273;BME280;36726;52.328;10.552;2023-02-16T10:55:05;101270.78;;;9.86;67.42
21273;BME280;36726;52.328;10.552;2023-02-16T10:57:32;101282.16;;;9.83;66.38
21273;BME280;36726;52.328;10.552;2023-02-16T11:00:06;101279.25;;;9.73;66.31
21273;BME280;36726;52.328;10.552;2023-02-16T11:02:45;101275.31;;;9.59;64.85
21273;BME280;36726;52.328;10.552;2023-02-16T11:05:37;101287.41;;;9.51;65.09
21273;BME280;36726;52.328;10.552;2023-02-16T11:08:05;101274.88;;;9.43;65.61
21273;BME280;36726;52.328;10.552;2023-02-16T11:10:46;101273.88;;;9.38;65.78
21273;BME280;36726;52.328;10.552;2023-02-16T11:13:27;101263.34;;;9.40;66.50
21273;BME280;36726;52.328;10.552;2023-02-16T11:15:57;101261.56;;;9.40;66.75
21273;BME280;36726;52.328;10.552;2023-02-16T11:20:58;101249.28;;;9.41;67.35
21273;BME280;36726;52.328;10.552;2023-02-16T11:23:30;101253.84;;;9.47;68.06
21273;BME280;36726;52.328;10.552;2023-02-16T11:26:19;101246.94;;;9.52;68.02
21273;BME280;36726;52.328;10.552;2023-02-16T11:28:48;101241.75;;;9.55;67.98
21273;BME280;36726;52.328;10.552;2023-02-16T11:31:36;101247.91;;;9.55;68.15
21273;BME280;36726;52.328;10.552;2023-02-16T11:34:09;101236.38;;;9.52;67.60
21273;BME280;36726;52.328;10.552;2023-02-16T11:36:43;101231.06;;;9.50;67.66
21273;BME280;36726;52.328;10.552;2023-02-16T11:39:16;101235.41;;;9.48;68.13
21273;BME280;36726;52.328;10.552;2023-02-16T11:41:51;101238.19;;;9.53;67.96
21273;BME280;36726;52.328;10.552;2023-02-16T11:44:26;101248.75;;;9.53;67.09
21273;BME280;36726;52.328;10.552;2023-02-16T11:46:58;101252.19;;;9.50;67.15
21273;BME280;36726;52.328;10.552;2023-02-16T11:49:35;101244.50;;;9.59;66.82
21273;BME280;36726;52.328;10.552;2023-02-16T11:52:27;101246.50;;;9.68;67.83
21273;BME280;36726;52.328;10.552;2023-02-16T11:54:57;101254.50;;;9.69;66.15
21273;BME280;36726;52.328;10.552;2023-02-16T11:57:27;101245.66;;;9.69;66.85
21273;BME280;36726;52.328;10.552;2023-02-16T11:59:59;101240.31;;;9.66;65.55
21273;BME280;36726;52.328;10.552;2023-02-16T12:03:05;101247.44;;;9.70;66.29
21273;BME280;36726;52.328;10.552;2023-02-16T12:05:47;101252.97;;;9.79;66.71
21273;BME280;36726;52.328;10.552;2023-02-16T12:08:38;101243.44;;;9.84;66.72
21273;BME280;36726;52.328;10.552;2023-02-16T12:11:26;101242.75;;;9.91;65.78
21273;BME280;36726;52.328;10.552;2023-02-16T12:13:57;101245.19;;;9.83;64.71
21273;BME280;36726;52.328;10.552;2023-02-16T12:16:36;101239.84;;;9.82;65.20
21273;BME280;36726;52.328;10.552;2023-02-16T12:19:21;101237.13;;;9.79;65.63
21273;BME280;36726;52.328;10.552;2023-02-16T12:21:56;101236.09;;;9.74;66.34
21273;BME280;36726;52.328;10.552;2023-02-16T12:24:42;101232.31;;;9.64;66.32
21273;BME280;36726;52.328;10.552;2023-02-16T12:27:29;101225.19;;;9.60;66.82
21273;BME280;36726;52.328;10.552;2023-02-16T12:30:17;101231.34;;;9.61;67.37
21273;BME280;36726;52.328;10.552;2023-02-16T12:32:54;101229.75;;;9.66;67.50
21273;BME280;36726;52.328;10.552;2023-02-16T12:35:49;101242.25;;;9.73;66.74
21273;BME280;36726;52.328;10.552;2023-02-16T12:38:55;101235.88;;;9.99;67.05
21273;BME280;36726;52.328;10.552;2023-02-16T12:44:09;101232.66;;;10.43;66.50
21273;BME280;36726;52.328;10.552;2023-02-16T12:46:45;101234.69;;;10.56;66.73
21273;BME280;36726;52.328;10.552;2023-02-16T12:49:27;101230.53;;;10.67;66.63
21273;BME280;36726;52.328;10.552;2023-02-16T12:52:05;101233.31;;;10.72;65.81
21273;BME280;36726;52.328;10.552;2023-02-16T12:54:50;101230.75;;;10.76;64.14
21273;BME280;36726;52.328;10.552;2023-02-16T12:57:19;101228.28;;;10.84;64.25
21273;BME280;36726;52.328;10.552;2023-02-16T13:00:02;101227.47;;;10.86;64.43
21273;BME280;36726;52.328;10.552;2023-02-16T13:02:37;101223.88;;;10.83;63.98
21273;BME280;36726;52.328;10.552;2023-02-16T13:05:25;101216.72;;;10.79;63.90
21273;BME280;36726;52.328;10.552;2023-02-16T13:13:34;101217.00;;;10.92;65.83
21273;BME280;36726;52.328;10.552;2023-02-16T13:16:21;101217.91;;;10.93;64.62
21273;BME280;36726;52.328;10.552;2023-02-16T13:18:56;101221.41;;;10.92;65.34
21273;BME280;36726;52.328;10.552;2023-02-16T13:27:16;101199.72;;;11.09;63.25
21273;BME280;36726;52.328;10.552;2023-02-16T13:35:15;101190.59;;;10.94;64.06
21273;BME280;36726;52.328;10.552;2023-02-16T13:38:17;101174.66;;;10.92;63.63
21273;BME280;36726;52.328;10.552;2023-02-16T13:41:15;101178.31;;;10.97;63.47
21273;BME280;36726;52.328;10.552;2023-02-16T13:43:54;101176.66;;;11.02;63.68
21273;BME280;36726;52.328;10.552;2023-02-16T13:46:26;101175.84;;;11.06;63.63
21273;BME280;36726;52.328;10.552;2023-02-16T13:48:55;101165.28;;;11.08;63.72
21273;BME280;36726;52.328;10.552;2023-02-16T13:51:25;101173.97;;;11.01;64.01
21273;BME280;36726;52.328;10.552;2023-02-16T13:53:55;101167.72;;;10.97;64.68
21273;BME280;36726;52.328;10.552;2023-02-16T13:56:35;101168.66;;;11.01;63.99
21273;BME280;36726;52.328;10.552;2023-02-16T14:02:10;101150.53;;;11.20;64.57
21273;BME280;36726;52.328;10.552;2023-02-16T14:09:45;101155.66;;;11.11;63.59
21273;BME280;36726;52.328;10.552;2023-02-16T14:12:27;101149.44;;;11.11;63.67
21273;BME280;36726;52.328;10.552;2023-02-16T14:15:02;101151.13;;;11.06;63.33
21273;BME280;36726;52.328;10.552;2023-02-16T14:17:31;101159.66;;;10.91;62.67
21273;BME280;36726;52.328;10.552;2023-02-16T14:27:56;101155.94;;;10.43;63.50
21273;BME280;36726;52.328;10.552;2023-02-16T14:33:18;101144.63;;;10.50;65.64
21273;BME280;36726;52.328;10.552;2023-02-16T14:38:27;101142.03;;;10.52;65.42
21273;BME280;36726;52.328;10.552;2023-02-16T14:40:56;101139.34;;;10.50;65.65